Time;durP1;ratioP1;P1;durP2;ratioP2;P2;SDS_P1;SDS_P2;PMS_P1;PMS_P2;Temp;Humidity;BMP_temperature;BMP_pressure;BME280_temperature;BME280_humidity;BME280_pressure;Samples;Min_cycle;Max_cycle;Signal;HPM_P1;HPM_P2
2022/07/16 00:02:46;;;;;;;6.43;3.38;;;;;;;;;;6277574;28;20312;-71
2022/07/16 00:05:48;;;;;;;7.82;3.70;;;;;;;;;;6270329;28;20071;-71
2022/07/16 00:08:50;;;;;;;5.35;3.42;;;;;;;;;;6276192;28;20056;-71
2022/07/16 00:11:51;;;;;;;8.52;4.10;;;;;;;;;;6275288;28;20045;-72
2022/07/16 00:14:54;;;;;;;4.65;3.72;;;;;;;;;;6271910;28;20049;-75
2022/07/16 00:21:11;;;;;;;7.93;4.20;;;;;;;;;;6278078;28;20036;-73
2022/07/16 00:24:13;;;;;;;6.57;4.00;;;;;;;;;;6273239;28;20312;-70
2022/07/16 00:27:15;;;;;;;3.28;2.92;;;;;;;;;;6272988;28;20469;-71
2022/07/16 00:30:18;;;;;;;4.07;3.08;;;;;;;;;;6272867;28;20232;-71
2022/07/16 00:33:20;;;;;;;5.72;3.45;;;;;;;;;;6276350;28;20056;-71
2022/07/16 00:36:21;;;;;;;4.22;3.45;;;;;;;;;;6276690;28;20044;-72
2022/07/16 00:39:23;;;;;;;4.00;3.60;;;;;;;;;;6268986;28;20084;-72
2022/07/16 00:42:25;;;;;;;4.00;3.25;;;;;;;;;;6269845;28;20079;-71
2022/07/16 00:45:28;;;;;;;3.78;2.95;;;;;;;;;;6273891;28;20052;-71
2022/07/16 00:48:30;;;;;;;4.63;3.80;;;;;;;;;;6268577;28;20056;-71
2022/07/16 00:51:32;;;;;;;3.55;3.20;;;;;;;;;;6269441;28;20170;-72
2022/07/16 00:54:34;;;;;;;3.85;2.80;;;;;;;;;;6273357;28;20328;-71
2022/07/16 00:57:36;;;;;;;3.85;2.67;;;;;;;;;;6270727;28;20041;-71
2022/07/16 01:00:39;;;;;;;5.03;2.90;;;;;;;;;;6270573;28;20350;-71
2022/07/16 01:03:41;;;;;;;;;;;;;;;;;;6270420;28;20045;-71
2022/07/16 01:06:43;;;;;;;6.43;3.08;;;;;;;;;;6272114;28;19962;-71
2022/07/16 01:09:45;;;;;;;5.35;2.97;;;;;;;;;;6269531;28;20359;-71
2022/07/16 01:12:46;;;;;;;6.35;3.08;;;;;;;;;;6272159;28;20064;-71
2022/07/16 01:15:49;;;;;;;5.00;3.00;;;;;;;;;;6270477;28;20060;-70
2022/07/16 01:18:51;;;;;;;;;;;;;;;;;;6269285;28;20102;-71
2022/07/16 01:21:52;;;;;;;8.02;3.47;;;;;;;;;;6270542;28;19917;-71
2022/07/16 01:24:55;;;;;;;4.95;3.13;;;;;;;;;;6270670;28;20343;-71
2022/07/16 01:27:57;;;;;;;;;;;;;;;;;;6273595;28;20652;-69
2022/07/16 01:30:59;;;;;;;7.80;3.08;;;;;;;;;;6272527;28;19925;-71
2022/07/16 01:37:19;;;;;;;12.30;4.00;;;;;;;;;;6272558;28;20070;-71
2022/07/16 01:40:23;;;;;;;8.70;3.20;;;;;;;;;;6269374;28;20049;-72
2022/07/16 01:43:26;;;;;;;7.20;3.38;;;;;;;;;;6269570;28;20053;-71
2022/07/16 01:46:28;;;;;;;4.10;3.58;;;;;;;;;;6271989;28;20049;-71
2022/07/16 01:49:31;;;;;;;4.72;3.25;;;;;;;;;;6272379;28;20263;-72
2022/07/16 01:52:33;;;;;;;4.88;3.50;;;;;;;;;;6270478;28;20053;-71
2022/07/16 01:55:36;;;;;;;4.25;3.50;;;;;;;;;;6266609;28;20056;-71
2022/07/16 01:58:39;;;;;;;3.58;3.28;;;;;;;;;;6267855;28;20064;-71
2022/07/16 02:01:40;;;;;;;4.18;3.78;;;;;;;;;;6266885;28;20044;-71
2022/07/16 02:04:43;;;;;;;7.45;3.78;;;;;;;;;;6275878;28;20923;-71
2022/07/16 02:07:45;;;;;;;7.18;3.65;;;;;;;;;;6270899;28;20252;-71
2022/07/16 02:10:48;;;;;;;8.05;3.67;;;;;;;;;;6270753;28;20259;-70
2022/07/16 02:13:49;;;;;;;;;;;;;;;;;;6271098;28;20232;-72
2022/07/16 02:16:51;;;;;;;6.72;4.00;;;;;;;;;;6274985;28;19917;-70
2022/07/16 02:19:53;;;;;;;4.53;3.78;;;;;;;;;;6272521;28;20048;-71
2022/07/16 02:22:56;;;;;;;6.68;3.85;;;;;;;;;;6274937;28;20238;-73
2022/07/16 02:25:59;;;;;;;7.18;3.88;;;;;;;;;;6273716;28;20064;-71
2022/07/16 02:29:01;;;;;;;6.47;3.70;;;;;;;;;;6269939;28;20275;-70
2022/07/16 02:32:02;;;;;;;4.63;3.65;;;;;;;;;;6269957;28;20055;-72
2022/07/16 02:35:05;;;;;;;5.25;3.58;;;;;;;;;;6270512;28;20100;-71
2022/07/16 02:38:07;;;;;;;4.35;3.65;;;;;;;;;;6271606;28;20141;-71
2022/07/16 02:41:10;;;;;;;6.97;4.35;;;;;;;;;;6269851;28;20321;-71
2022/07/16 02:44:12;;;;;;;8.85;4.18;;;;;;;;;;6270392;28;20277;-73
2022/07/16 02:47:13;;;;;;;6.45;4.53;;;;;;;;;;6272035;28;20052;-71
2022/07/16 02:50:15;;;;;;;5.32;3.60;;;;;;;;;;6273190;28;20061;-72
2022/07/16 02:53:17;;;;;;;6.32;4.00;;;;;;;;;;6270978;28;20045;-72
2022/07/16 02:56:20;;;;;;;7.38;4.18;;;;;;;;;;6268274;28;20052;-72
2022/07/16 02:59:21;;;;;;;5.85;4.00;;;;;;;;;;6268684;28;20063;-71
2022/07/16 03:02:23;;;;;;;7.47;4.78;;;;;;;;;;6270853;28;20283;-72
2022/07/16 03:05:25;;;;;;;4.63;3.78;;;;;;;;;;6271329;28;20056;-71
2022/07/16 03:08:27;;;;;;;4.60;4.20;;;;;;;;;;6271841;28;20053;-72
2022/07/16 03:11:30;;;;;;;7.50;3.50;;;;;;;;;;6272391;28;20045;-72
2022/07/16 03:14:31;;;;;;;4.97;4.00;;;;;;;;;;6269596;28;20088;-71
2022/07/16 03:17:33;;;;;;;7.15;3.72;;;;;;;;;;6271229;28;20079;-74
2022/07/16 03:20:35;;;;;;;7.55;4.10;;;;;;;;;;6268591;28;20053;-71
2022/07/16 03:23:37;;;;;;;6.38;5.32;;;;;;;;;;6268872;28;20052;-73
2022/07/16 03:26:40;;;;;;;7.47;4.43;;;;;;;;;;6270400;28;20344;-72
2022/07/16 03:29:41;;;;;;;8.68;4.43;;;;;;;;;;6270285;28;20045;-72
2022/07/16 03:32:43;;;;;;;6.20;4.43;;;;;;;;;;6273898;28;20061;-73
2022/07/16 03:35:45;;;;;;;6.05;4.55;;;;;;;;;;6270325;28;20060;-72
2022/07/16 03:38:59;;;;;;;6.18;4.35;;;;;;;;;;6270952;28;20069;-73
2022/07/16 03:42:02;;;;;;;5.28;4.35;;;;;;;;;;6270965;28;20056;-72
2022/07/16 03:45:04;;;;;;;7.75;4.82;;;;;;;;;;6266475;28;20383;-73
2022/07/16 03:48:06;;;;;;;6.72;4.88;;;;;;;;;;6272138;28;20057;-72
2022/07/16 03:51:08;;;;;;;10.77;4.72;;;;;;;;;;6271217;28;20107;-72
2022/07/16 03:54:10;;;;;;;6.70;4.65;;;;;;;;;;6270821;28;20332;-72
2022/07/16 03:57:13;;;;;;;8.70;4.75;;;;;;;;;;6270057;28;20045;-70
2022/07/16 04:00:15;;;;;;;7.13;4.60;;;;;;;;;;6269465;28;20053;-71
2022/07/16 04:03:16;;;;;;;6.07;4.03;;;;;;;;;;6271367;28;20279;-71
2022/07/16 04:06:18;;;;;;;17.42;5.30;;;;;;;;;;6271983;28;20041;-72
2022/07/16 04:09:20;;;;;;;7.28;4.45;;;;;;;;;;6266882;28;20056;-73
2022/07/16 04:12:24;;;;;;;10.18;4.70;;;;;;;;;;6268809;28;20042;-73
2022/07/16 04:15:25;;;;;;;8.02;4.88;;;;;;;;;;6265621;28;20071;-73
2022/07/16 04:18:27;;;;;;;5.68;4.43;;;;;;;;;;6271049;28;20051;-72
2022/07/16 04:21:29;;;;;;;6.38;4.38;;;;;;;;;;6268968;28;20060;-74
2022/07/16 04:24:30;;;;;;;4.68;4.00;;;;;;;;;;6269807;28;20263;-72
2022/07/16 04:27:33;;;;;;;4.47;4.05;;;;;;;;;;6267833;28;20052;-73
2022/07/16 04:30:35;;;;;;;;;;;;;;;;;;6267852;28;20068;-71
2022/07/16 04:33:37;;;;;;;9.18;4.20;;;;;;;;;;6268090;28;19928;-71
2022/07/16 04:36:38;;;;;;;6.32;4.07;;;;;;;;;;6271458;28;20056;-72
2022/07/16 04:39:40;;;;;;;7.72;4.68;;;;;;;;;;6267375;28;20041;-72
2022/07/16 04:42:44;;;;;;;5.93;4.20;;;;;;;;;;6270924;28;20049;-71
2022/07/16 04:45:46;;;;;;;7.22;4.00;;;;;;;;;;6267493;28;20289;-71
2022/07/16 04:48:48;;;;;;;9.85;4.25;;;;;;;;;;6271427;28;20057;-72
2022/07/16 04:51:49;;;;;;;6.00;4.20;;;;;;;;;;6268529;28;20262;-71
2022/07/16 04:54:51;;;;;;;5.28;3.63;;;;;;;;;;6270422;28;20098;-72
2022/07/16 04:57:54;;;;;;;5.97;4.40;;;;;;;;;;6271805;28;20049;-71
2022/07/16 05:00:56;;;;;;;7.15;4.13;;;;;;;;;;6266615;28;20209;-72
2022/07/16 05:03:57;;;;;;;7.45;3.90;;;;;;;;;;6272583;28;20080;-72
2022/07/16 05:06:59;;;;;;;8.98;3.95;;;;;;;;;;6270601;28;20267;-71
2022/07/16 05:10:01;;;;;;;6.85;4.03;;;;;;;;;;6276534;28;20114;-71
2022/07/16 05:13:05;;;;;;;9.95;4.50;;;;;;;;;;6272344;28;20052;-72
2022/07/16 05:16:07;;;;;;;8.55;4.20;;;;;;;;;;6276189;28;20041;-71
2022/07/16 05:19:09;;;;;;;6.78;4.65;;;;;;;;;;6269371;28;20053;-71
2022/07/16 05:22:10;;;;;;;7.95;4.10;;;;;;;;;;6273556;28;20049;-71
2022/07/16 05:25:12;;;;;;;7.68;3.65;;;;;;;;;;6275380;28;20365;-71
2022/07/16 05:28:15;;;;;;;7.80;4.68;;;;;;;;;;6269937;28;20056;-72
2022/07/16 05:31:17;;;;;;;5.80;3.88;;;;;;;;;;6274259;28;20398;-71
2022/07/16 05:34:19;;;;;;;5.35;4.00;;;;;;;;;;6276523;28;20056;-71
2022/07/16 05:37:20;;;;;;;7.25;4.28;;;;;;;;;;6275000;28;20336;-72
2022/07/16 05:40:22;;;;;;;5.25;3.80;;;;;;;;;;6284565;28;20051;-71
2022/07/16 05:43:25;;;;;;;9.70;4.25;;;;;;;;;;6281322;28;20236;-72
2022/07/16 05:46:27;;;;;;;9.65;4.63;;;;;;;;;;6280670;28;20075;-72
2022/07/16 05:49:28;;;;;;;8.73;4.28;;;;;;;;;;6278404;28;20064;-72
2022/07/16 05:52:30;;;;;;;6.00;4.35;;;;;;;;;;6281764;28;20351;-72
2022/07/16 05:55:32;;;;;;;5.70;4.20;;;;;;;;;;6280985;28;20091;-71
2022/07/16 05:58:35;;;;;;;8.20;4.20;;;;;;;;;;6280757;28;20389;-71
2022/07/16 06:01:36;;;;;;;6.38;4.18;;;;;;;;;;6279437;28;20107;-74
2022/07/16 06:04:38;;;;;;;7.05;3.90;;;;;;;;;;6275837;28;20061;-71
2022/07/16 06:07:40;;;;;;;6.28;4.15;;;;;;;;;;6278839;28;20045;-71
2022/07/16 06:10:42;;;;;;;9.38;4.10;;;;;;;;;;6279843;28;20242;-72
2022/07/16 06:13:45;;;;;;;6.82;4.18;;;;;;;;;;6281507;28;20568;-71
2022/07/16 06:16:47;;;;;;;5.75;4.25;;;;;;;;;;6274640;28;20734;-72
2022/07/16 06:19:49;;;;;;;6.55;4.47;;;;;;;;;;6269965;28;20069;-71
2022/07/16 06:22:54;;;;;;;7.45;4.55;;;;;;;;;;6278782;28;20053;-72
2022/07/16 06:25:55;;;;;;;6.88;4.20;;;;;;;;;;6276056;28;20056;-72
2022/07/16 06:28:58;;;;;;;5.03;4.15;;;;;;;;;;6275784;28;20056;-73
2022/07/16 06:32:00;;;;;;;6.28;3.90;;;;;;;;;;6278651;28;20056;-71
2022/07/16 06:35:02;;;;;;;6.68;3.90;;;;;;;;;;6278878;28;20329;-69
2022/07/16 06:38:04;;;;;;;6.40;3.90;;;;;;;;;;6278014;28;20056;-69
2022/07/16 06:41:06;;;;;;;7.53;3.67;;;;;;;;;;6274441;28;20354;-72
2022/07/16 06:44:09;;;;;;;4.70;3.83;;;;;;;;;;6273347;28;20049;-72
2022/07/16 06:47:11;;;;;;;5.45;4.20;;;;;;;;;;6278310;28;20053;-72
2022/07/16 06:50:13;;;;;;;5.32;3.08;;;;;;;;;;6272109;28;20060;-72
2022/07/16 06:53:14;;;;;;;6.75;4.07;;;;;;;;;;6275802;28;20060;-75
2022/07/16 06:56:16;;;;;;;5.53;3.60;;;;;;;;;;6274192;28;20094;-76
2022/07/16 06:59:19;;;;;;;4.63;3.70;;;;;;;;;;6274243;28;20053;-72
2022/07/16 07:02:21;;;;;;;8.52;4.03;;;;;;;;;;6275351;28;20041;-72
2022/07/16 07:05:22;;;;;;;4.70;3.65;;;;;;;;;;6276104;28;20056;-72
2022/07/16 07:08:24;;;;;;;5.53;3.30;;;;;;;;;;6274002;28;20037;-74
2022/07/16 07:11:26;;;;;;;6.90;4.10;;;;;;;;;;6276002;28;20434;-72
2022/07/16 07:14:29;;;;;;;7.07;4.22;;;;;;;;;;6274212;28;20045;-72
2022/07/16 07:17:31;;;;;;;5.45;3.80;;;;;;;;;;6272045;28;20044;-73
2022/07/16 07:20:32;;;;;;;8.45;4.30;;;;;;;;;;6276630;28;20044;-77
2022/07/16 07:23:34;;;;;;;4.90;3.88;;;;;;;;;;6275235;28;20045;-71
2022/07/16 07:26:36;;;;;;;5.38;3.58;;;;;;;;;;6274839;28;20061;-75
2022/07/16 07:29:39;;;;;;;6.05;3.30;;;;;;;;;;6276209;28;20048;-71
2022/07/16 07:32:40;;;;;;;9.82;3.97;;;;;;;;;;6272744;28;20493;-76
2022/07/16 07:35:42;;;;;;;5.88;3.60;;;;;;;;;;6276519;28;20045;-72
2022/07/16 07:38:44;;;;;;;6.45;3.90;;;;;;;;;;6274376;28;20064;-72
2022/07/16 07:41:45;;;;;;;5.93;4.07;;;;;;;;;;6278822;28;20224;-72
2022/07/16 07:44:48;;;;;;;6.45;3.55;;;;;;;;;;6272824;28;20049;-74
2022/07/16 07:47:50;;;;;;;4.47;3.95;;;;;;;;;;6277429;28;20275;-71
2022/07/16 07:50:51;;;;;;;5.10;3.97;;;;;;;;;;6277538;28;20053;-76
2022/07/16 07:53:54;;;;;;;4.18;3.42;;;;;;;;;;6273298;28;20053;-72
2022/07/16 07:56:55;;;;;;;4.43;4.03;;;;;;;;;;6274193;28;20047;-71
2022/07/16 07:59:58;;;;;;;5.85;4.20;;;;;;;;;;6274293;28;20557;-71
2022/07/16 08:03:00;;;;;;;7.00;4.20;;;;;;;;;;6273368;28;20064;-76
2022/07/16 08:06:02;;;;;;;5.97;4.07;;;;;;;;;;6275520;28;20060;-77
2022/07/16 08:09:03;;;;;;;8.93;4.25;;;;;;;;;;6273275;28;20044;-75
2022/07/16 08:12:05;;;;;;;4.13;3.45;;;;;;;;;;6274875;28;20056;-73
2022/07/16 08:15:10;;;;;;;5.50;3.78;;;;;;;;;;6274158;28;20076;-80
2022/07/16 08:18:11;;;;;;;5.45;3.67;;;;;;;;;;6269965;28;20466;-78
2022/07/16 08:21:13;;;;;;;7.55;3.78;;;;;;;;;;6273715;28;20053;-72
2022/07/16 08:27:34;;;;;;;8.27;3.72;;;;;;;;;;6269913;28;20269;-73
2022/07/16 08:30:37;;;;;;;4.85;3.15;;;;;;;;;;6272441;28;20343;-70
2022/07/16 08:33:39;;;;;;;5.13;3.38;;;;;;;;;;6271198;28;20052;-76
2022/07/16 08:36:41;;;;;;;5.22;2.97;;;;;;;;;;6272292;28;20354;-78
2022/07/16 08:39:43;;;;;;;8.83;3.90;;;;;;;;;;6271895;28;20071;-74
2022/07/16 08:42:45;;;;;;;8.33;3.47;;;;;;;;;;6277353;28;20555;-76
2022/07/16 08:45:48;;;;;;;6.43;3.22;;;;;;;;;;6274225;28;20057;-72
2022/07/16 08:48:50;;;;;;;4.40;3.30;;;;;;;;;;6272644;28;20052;-70
2022/07/16 08:51:52;;;;;;;6.07;2.97;;;;;;;;;;6273172;28;20056;-74
2022/07/16 08:54:55;;;;;;;3.60;3.00;;;;;;;;;;6276404;28;20474;-72
2022/07/16 08:57:57;;;;;;;5.20;3.08;;;;;;;;;;6270255;28;21805;-78
2022/07/16 09:01:01;;;;;;;3.55;3.03;;;;;;;;;;6270210;28;20336;-73
2022/07/16 09:04:03;;;;;;;5.40;2.92;;;;;;;;;;6271596;28;20083;-72
2022/07/16 09:07:05;;;;;;;8.65;2.80;;;;;;;;;;6270606;28;20057;-72
2022/07/16 09:10:09;;;;;;;4.57;3.22;;;;;;;;;;6273625;28;20048;-71
2022/07/16 09:13:11;;;;;;;5.68;3.00;;;;;;;;;;6277618;28;20056;-73
2022/07/16 09:16:28;;;;;;;10.18;3.45;;;;;;;;;;6282146;28;20060;-72
2022/07/16 09:19:30;;;;;;;3.85;2.88;;;;;;;;;;6279638;28;20339;-72
2022/07/16 09:22:32;;;;;;;;;;;;;;;;;;6276696;28;20053;-72
2022/07/16 09:25:33;;;;;;;3.83;3.13;;;;;;;;;;6282882;28;20329;-73
2022/07/16 09:28:42;;;;;;;5.37;2.90;;;;;;;;;;6282599;28;20347;-72
2022/07/16 09:31:45;;;;;;;4.95;3.15;;;;;;;;;;6279324;28;20056;-70
2022/07/16 09:34:47;;;;;;;4.53;2.78;;;;;;;;;;6281728;28;20229;-72
2022/07/16 09:37:51;;;;;;;5.37;3.27;;;;;;;;;;6281455;28;20057;-72
2022/07/16 09:40:54;;;;;;;7.40;3.08;;;;;;;;;;6284560;28;20044;-71
2022/07/16 09:43:55;;;;;;;3.78;3.00;;;;;;;;;;6280476;28;20120;-71
2022/07/16 09:47:01;;;;;;;3.70;2.90;;;;;;;;;;6279116;28;20244;-72
2022/07/16 09:50:03;;;;;;;3.55;2.65;;;;;;;;;;6284028;28;20053;-73
2022/07/16 09:53:14;;;;;;;4.68;3.05;;;;;;;;;;6280316;28;20056;-74
2022/07/16 10:02:51;;;;;;;3.35;3.00;;;;;;;;;;6465049;22;20056;-73
2022/07/16 10:05:53;;;;;;;5.80;2.88;;;;;;;;;;6332112;28;20067;-76
2022/07/16 10:08:55;;;;;;;3.45;2.75;;;;;;;;;;6332021;28;20144;-75
2022/07/16 10:11:58;;;;;;;3.20;2.83;;;;;;;;;;6331192;28;20047;-73
2022/07/16 10:15:00;;;;;;;4.85;2.88;;;;;;;;;;6332701;28;20058;-75
2022/07/16 10:18:03;;;;;;;;;;;;;;;;;;6330342;28;20044;-73
2022/07/16 10:21:07;;;;;;;6.38;3.00;;;;;;;;;;6332194;28;19961;-74
2022/07/16 10:24:10;;;;;;;9.38;2.58;;;;;;;;;;6327839;28;20058;-73
2022/07/16 10:27:20;;;;;;;8.63;3.00;;;;;;;;;;6328233;28;20040;-72
2022/07/16 10:30:25;;;;;;;9.77;3.05;;;;;;;;;;6328553;28;20073;-70
2022/07/16 10:33:29;;;;;;;3.53;2.83;;;;;;;;;;6325698;28;20055;-70
2022/07/16 10:36:44;;;;;;;7.70;2.70;;;;;;;;;;6324163;28;20277;-71
2022/07/16 10:40:01;;;;;;;5.78;2.60;;;;;;;;;;6327301;28;20066;-73
2022/07/16 10:43:15;;;;;;;5.68;2.80;;;;;;;;;;6328320;28;20060;-71
2022/07/16 10:46:26;;;;;;;3.95;2.60;;;;;;;;;;6330077;28;20042;-70
2022/07/16 10:49:30;;;;;;;4.00;2.75;;;;;;;;;;6330128;28;20327;-69
2022/07/16 10:52:41;;;;;;;10.15;3.28;;;;;;;;;;6327558;28;20056;-69
2022/07/16 10:55:43;;;;;;;16.42;5.28;;;;;;;;;;6325358;28;20055;-68
2022/07/16 10:58:46;;;;;;;6.03;3.22;;;;;;;;;;6328923;28;20048;-69
2022/07/16 11:01:48;;;;;;;;;;;;;;;;;;6329433;28;20048;-67
2022/07/16 11:04:51;;;;;;;11.23;4.30;;;;;;;;;;6329439;28;20195;-68
2022/07/16 11:07:52;;;;;;;6.32;3.83;;;;;;;;;;6328603;28;21177;-70
2022/07/16 11:10:54;;;;;;;4.18;2.80;;;;;;;;;;6327389;28;20274;-69
2022/07/16 11:13:56;;;;;;;4.20;2.50;;;;;;;;;;6330428;28;20051;-72
2022/07/16 11:16:58;;;;;;;5.18;3.05;;;;;;;;;;6332405;28;20327;-69
2022/07/16 11:20:03;;;;;;;;;;;;;;;;;;6330287;28;20047;-70
2022/07/16 11:23:05;;;;;;;3.30;2.90;;;;;;;;;;6327596;28;19931;-70
2022/07/16 11:26:11;;;;;;;4.25;3.13;;;;;;;;;;6333361;28;20082;-69
2022/07/16 11:29:13;;;;;;;6.20;3.13;;;;;;;;;;6331856;28;20039;-72
2022/07/16 11:32:15;;;;;;;5.63;2.97;;;;;;;;;;6328263;28;20067;-72
2022/07/16 11:35:18;;;;;;;4.43;2.80;;;;;;;;;;6331674;28;20067;-72
2022/07/16 11:38:26;;;;;;;4.53;2.95;;;;;;;;;;6329564;28;20377;-73
2022/07/16 11:41:28;;;;;;;3.75;3.00;;;;;;;;;;6334722;28;20052;-72
2022/07/16 11:44:31;;;;;;;4.03;2.42;;;;;;;;;;6332876;28;20098;-69
2022/07/16 11:47:33;;;;;;;4.68;2.55;;;;;;;;;;6329014;28;20047;-71
2022/07/16 11:50:36;;;;;;;;;;;;;;;;;;6327964;28;20085;-70
2022/07/16 11:53:38;;;;;;;3.25;2.72;;;;;;;;;;6328317;28;19924;-73
2022/07/16 11:56:40;;;;;;;;;;;;;;;;;;6325335;28;20104;-72
2022/07/16 11:59:42;;;;;;;;;;;;;;;;;;6332263;28;19923;-72
2022/07/16 12:02:45;;;;;;;6.47;2.83;;;;;;;;;;6327593;28;19931;-72
2022/07/16 12:05:48;;;;;;;4.53;2.70;;;;;;;;;;6326553;28;20039;-73
2022/07/16 12:08:53;;;;;;;4.55;3.15;;;;;;;;;;6327024;28;20335;-74
2022/07/16 12:12:00;;;;;;;5.60;3.20;;;;;;;;;;6328492;28;20044;-71
2022/07/16 12:15:03;;;;;;;5.07;2.83;;;;;;;;;;6326880;28;20067;-70
2022/07/16 12:18:14;;;;;;;4.82;2.90;;;;;;;;;;6323098;28;20102;-78
2022/07/16 12:21:27;;;;;;;4.73;2.93;;;;;;;;;;6327400;28;20272;-73
2022/07/16 12:24:29;;;;;;;5.05;2.80;;;;;;;;;;6325143;28;20093;-72
2022/07/16 12:27:44;;;;;;;5.47;2.65;;;;;;;;;;6327129;28;20044;-72
2022/07/16 12:30:54;;;;;;;8.45;3.22;;;;;;;;;;6321966;28;20347;-73
2022/07/16 12:33:56;;;;;;;5.43;3.25;;;;;;;;;;6325476;28;20075;-73
2022/07/16 12:36:59;;;;;;;5.43;2.97;;;;;;;;;;6329519;28;20056;-72
2022/07/16 12:40:11;;;;;;;4.22;2.72;;;;;;;;;;6326915;28;20062;-74
2022/07/16 12:43:13;;;;;;;3.67;2.72;;;;;;;;;;6328862;28;20044;-73
2022/07/16 12:46:14;;;;;;;;;;;;;;;;;;6329131;28;20212;-72
2022/07/16 12:49:18;;;;;;;3.70;2.75;;;;;;;;;;6323093;28;19916;-75
2022/07/16 12:52:21;;;;;;;3.25;2.95;;;;;;;;;;6326106;28;20048;-72
2022/07/16 12:58:51;;;;;;;3.17;2.90;;;;;;;;;;6326666;28;20264;-72
2022/07/16 13:01:53;;;;;;;5.70;2.80;;;;;;;;;;6326349;28;20074;-73
2022/07/16 13:04:55;;;;;;;4.78;3.03;;;;;;;;;;6326117;28;20051;-72
2022/07/16 13:07:58;;;;;;;3.10;2.80;;;;;;;;;;6330352;28;20082;-71
2022/07/16 13:11:00;;;;;;;6.75;2.97;;;;;;;;;;6324743;28;20060;-72
2022/07/16 13:14:02;;;;;;;3.25;2.92;;;;;;;;;;6332457;28;20162;-71
2022/07/16 13:17:03;;;;;;;4.18;3.20;;;;;;;;;;6333952;28;20060;-71
2022/07/16 13:20:06;;;;;;;5.38;3.58;;;;;;;;;;6332853;28;20277;-71
2022/07/16 13:23:09;;;;;;;3.13;2.90;;;;;;;;;;6326925;28;20346;-72
2022/07/16 13:26:11;;;;;;;4.10;2.70;;;;;;;;;;6327757;28;20047;-71
2022/07/16 13:29:13;;;;;;;4.55;3.22;;;;;;;;;;6326734;28;20223;-72
2022/07/16 13:32:15;;;;;;;3.75;3.20;;;;;;;;;;6325709;28;20044;-71
2022/07/16 13:35:16;;;;;;;6.35;3.55;;;;;;;;;;6327496;28;20045;-72
2022/07/16 13:38:20;;;;;;;6.57;3.35;;;;;;;;;;6330411;28;20119;-72
2022/07/16 13:41:22;;;;;;;5.68;3.35;;;;;;;;;;6329255;28;20040;-71
2022/07/16 13:44:24;;;;;;;4.65;3.15;;;;;;;;;;6334364;28;20110;-70
2022/07/16 13:47:26;;;;;;;5.15;4.03;;;;;;;;;;6330264;28;20047;-70
2022/07/16 13:50:28;;;;;;;3.65;3.33;;;;;;;;;;6326619;28;20095;-70
2022/07/16 13:53:31;;;;;;;5.93;3.90;;;;;;;;;;6332238;28;20047;-70
2022/07/16 13:56:32;;;;;;;9.38;4.63;;;;;;;;;;6329516;28;20094;-71
2022/07/16 13:59:34;;;;;;;5.70;3.95;;;;;;;;;;6333386;28;20112;-71
2022/07/16 14:02:35;;;;;;;5.50;3.60;;;;;;;;;;6329953;28;20043;-71
2022/07/16 14:05:37;;;;;;;5.05;3.38;;;;;;;;;;6326632;28;20044;-70
2022/07/16 14:08:40;;;;;;;4.43;3.78;;;;;;;;;;6336323;28;20093;-73
2022/07/16 14:11:42;;;;;;;4.47;3.28;;;;;;;;;;6335667;28;20273;-71
2022/07/16 14:14:43;;;;;;;3.78;3.33;;;;;;;;;;6330183;28;20052;-71
2022/07/16 14:17:46;;;;;;;4.28;3.47;;;;;;;;;;6327706;28;20323;-70
2022/07/16 14:20:47;;;;;;;9.80;3.97;;;;;;;;;;6331675;28;20047;-72
2022/07/16 14:23:50;;;;;;;;;;;;;;;;;;6325577;28;20254;-72
2022/07/16 14:26:51;;;;;;;5.82;3.22;;;;;;;;;;6325063;28;19915;-72
2022/07/16 14:29:54;;;;;;;5.10;3.58;;;;;;;;;;6325465;28;20055;-69
2022/07/16 14:32:55;;;;;;;4.43;3.40;;;;;;;;;;6328867;28;20051;-72
2022/07/16 14:35:57;;;;;;;7.32;3.42;;;;;;;;;;6326171;28;20222;-70
2022/07/16 14:39:00;;;;;;;4.97;3.55;;;;;;;;;;6338436;28;20350;-70
2022/07/16 14:42:02;;;;;;;6.85;3.53;;;;;;;;;;6327626;28;20052;-70
2022/07/16 14:45:04;;;;;;;3.58;3.17;;;;;;;;;;6328383;28;20074;-70
2022/07/16 14:48:06;;;;;;;4.63;3.10;;;;;;;;;;6331925;28;20059;-70
2022/07/16 14:51:08;;;;;;;6.90;3.28;;;;;;;;;;6327732;28;20048;-71
2022/07/16 14:54:11;;;;;;;3.67;3.30;;;;;;;;;;6325674;28;20044;-70
2022/07/16 14:57:12;;;;;;;5.07;3.50;;;;;;;;;;6328099;28;20247;-70
2022/07/16 15:00:15;;;;;;;5.88;3.70;;;;;;;;;;6329031;28;20327;-70
2022/07/16 15:03:17;;;;;;;4.43;3.30;;;;;;;;;;6324378;28;20051;-71
2022/07/16 15:06:18;;;;;;;3.67;3.30;;;;;;;;;;6324300;28;20059;-70
2022/07/16 15:09:22;;;;;;;4.93;4.05;;;;;;;;;;6323432;28;20200;-70
2022/07/16 15:12:24;;;;;;;6.32;3.42;;;;;;;;;;6331003;28;20044;-70
2022/07/16 15:15:25;;;;;;;8.02;3.38;;;;;;;;;;6330325;28;20071;-70
2022/07/16 15:18:27;;;;;;;6.22;3.63;;;;;;;;;;6310343;28;20040;-71
2022/07/16 15:21:29;;;;;;;4.82;3.80;;;;;;;;;;6322668;28;20040;-69
2022/07/16 15:24:32;;;;;;;6.68;3.35;;;;;;;;;;6329828;28;20176;-70
2022/07/16 15:27:34;;;;;;;4.10;3.47;;;;;;;;;;6324738;28;20109;-70
2022/07/16 15:30:36;;;;;;;5.60;3.25;;;;;;;;;;6318880;28;20040;-71
2022/07/16 15:33:39;;;;;;;5.40;3.20;;;;;;;;;;6320754;27;20040;-71
2022/07/16 15:36:41;;;;;;;4.88;3.63;;;;;;;;;;6322618;28;20059;-71
2022/07/16 15:39:44;;;;;;;5.60;3.88;;;;;;;;;;6320761;28;20048;-72
2022/07/16 15:42:46;;;;;;;3.80;3.50;;;;;;;;;;6316454;28;20036;-71
2022/07/16 15:45:48;;;;;;;3.83;3.35;;;;;;;;;;6320871;28;20058;-72
2022/07/16 15:48:49;;;;;;;6.53;3.78;;;;;;;;;;6323508;28;20060;-72
2022/07/16 15:51:51;;;;;;;5.85;3.60;;;;;;;;;;6318371;28;20049;-70
2022/07/16 15:54:54;;;;;;;5.70;3.88;;;;;;;;;;6319600;28;20081;-71
2022/07/16 15:57:56;;;;;;;5.40;3.60;;;;;;;;;;6323769;28;20105;-70
2022/07/16 16:00:58;;;;;;;8.15;4.28;;;;;;;;;;6322172;28;20223;-71
2022/07/16 16:03:59;;;;;;;5.35;3.20;;;;;;;;;;6321548;28;20074;-71
2022/07/16 16:07:01;;;;;;;5.78;3.78;;;;;;;;;;6322493;28;20055;-71
2022/07/16 16:10:05;;;;;;;7.60;3.50;;;;;;;;;;6328191;28;20060;-71
2022/07/16 16:13:06;;;;;;;5.18;3.60;;;;;;;;;;6311657;28;20434;-71
2022/07/16 16:16:08;;;;;;;6.10;3.60;;;;;;;;;;6319182;28;20270;-70
2022/07/16 16:19:10;;;;;;;5.63;3.70;;;;;;;;;;6324254;28;20453;-71
2022/07/16 16:22:12;;;;;;;5.50;3.88;;;;;;;;;;6317975;28;20051;-72
2022/07/16 16:25:15;;;;;;;7.47;3.43;;;;;;;;;;6319548;28;20115;-72
2022/07/16 16:28:17;;;;;;;3.35;3.08;;;;;;;;;;6323171;28;20330;-69
2022/07/16 16:31:18;;;;;;;4.13;3.80;;;;;;;;;;6321483;28;20056;-69
2022/07/16 16:34:20;;;;;;;4.13;3.70;;;;;;;;;;6324428;28;20056;-70
2022/07/16 16:37:22;;;;;;;6.57;4.03;;;;;;;;;;6318199;28;20064;-70
2022/07/16 16:40:25;;;;;;;6.47;3.70;;;;;;;;;;6314735;28;20223;-69
2022/07/16 16:43:27;;;;;;;5.45;3.80;;;;;;;;;;6320102;28;20123;-73
2022/07/16 16:46:28;;;;;;;7.13;3.67;;;;;;;;;;6323273;28;20319;-69
2022/07/16 16:49:30;;;;;;;7.10;3.83;;;;;;;;;;6321914;28;20263;-69
2022/07/16 16:52:32;;;;;;;3.90;3.47;;;;;;;;;;6324200;28;20060;-69
2022/07/16 16:55:35;;;;;;;6.43;3.80;;;;;;;;;;6323209;28;20251;-71
2022/07/16 16:58:36;;;;;;;6.50;4.00;;;;;;;;;;6327033;28;20629;-69
2022/07/16 17:01:39;;;;;;;5.60;3.73;;;;;;;;;;6323824;28;20381;-70
2022/07/16 17:04:40;;;;;;;6.68;3.92;;;;;;;;;;6322591;28;20043;-70
2022/07/16 17:07:42;;;;;;;4.20;3.80;;;;;;;;;;6325028;28;20056;-69
2022/07/16 17:10:45;;;;;;;4.30;3.70;;;;;;;;;;6322623;28;20052;-70
2022/07/16 17:13:47;;;;;;;6.35;4.68;;;;;;;;;;6323903;28;20040;-71
2022/07/16 17:16:48;;;;;;;3.93;3.60;;;;;;;;;;6323325;28;20070;-71
2022/07/16 17:19:50;;;;;;;7.40;3.70;;;;;;;;;;6326223;28;20048;-69
2022/07/16 17:22:52;;;;;;;5.55;3.72;;;;;;;;;;6317731;28;20051;-72
2022/07/16 17:25:55;;;;;;;3.60;3.30;;;;;;;;;;6323765;28;20040;-69
2022/07/16 17:28:57;;;;;;;7.82;3.60;;;;;;;;;;6321052;28;20045;-69
2022/07/16 17:31:59;;;;;;;4.37;3.40;;;;;;;;;;6322801;28;20064;-70
2022/07/16 17:35:00;;;;;;;5.10;3.65;;;;;;;;;;6322567;28;20051;-70
2022/07/16 17:38:02;;;;;;;7.63;4.10;;;;;;;;;;6330336;28;20322;-69
2022/07/16 17:41:05;;;;;;;3.90;3.30;;;;;;;;;;6320633;28;20059;-74
2022/07/16 17:44:07;;;;;;;5.70;3.58;;;;;;;;;;6320001;28;20280;-70
2022/07/16 17:47:09;;;;;;;4.17;3.73;;;;;;;;;;6325490;28;20056;-73
2022/07/16 17:50:10;;;;;;;5.47;3.87;;;;;;;;;;6328291;28;20052;-73
2022/07/16 17:53:12;;;;;;;3.47;3.00;;;;;;;;;;6325391;28;20059;-72
2022/07/16 17:56:15;;;;;;;7.13;3.67;;;;;;;;;;6324224;28;20052;-70
2022/07/16 17:59:17;;;;;;;3.83;3.40;;;;;;;;;;6311221;28;20040;-69
2022/07/16 18:02:19;;;;;;;8.47;4.10;;;;;;;;;;6319858;28;20056;-71
2022/07/16 18:05:20;;;;;;;7.82;3.60;;;;;;;;;;6314649;28;20261;-71
2022/07/16 18:08:22;;;;;;;5.85;3.47;;;;;;;;;;6313656;28;20062;-69
2022/07/16 18:11:25;;;;;;;4.82;3.72;;;;;;;;;;6316739;27;20101;-69
2022/07/16 18:14:28;;;;;;;3.90;3.50;;;;;;;;;;6315724;28;20063;-73
2022/07/16 18:17:30;;;;;;;6.43;3.53;;;;;;;;;;6313715;27;20339;-70
2022/07/16 18:20:31;;;;;;;4.38;3.70;;;;;;;;;;6315048;28;20289;-71
2022/07/16 18:23:33;;;;;;;6.97;3.85;;;;;;;;;;6312230;28;20404;-71
2022/07/16 18:26:39;;;;;;;5.57;3.40;;;;;;;;;;6310672;28;20048;-70
2022/07/16 18:29:40;;;;;;;4.75;3.47;;;;;;;;;;6316225;28;20355;-73
2022/07/16 18:32:42;;;;;;;6.68;3.65;;;;;;;;;;6314651;28;20067;-71
2022/07/16 18:35:44;;;;;;;11.60;3.90;;;;;;;;;;6312555;28;20051;-73
2022/07/16 18:38:46;;;;;;;7.30;3.72;;;;;;;;;;6312790;28;20090;-72
2022/07/16 18:41:49;;;;;;;5.75;3.30;;;;;;;;;;6317783;28;20047;-73